Latest Weather Observations for Fitzroy Crossing

IDW60801

Issued at 11:53 pm WST Thursday 25 April 2019 (issued every 10 minutes, with the page automatically refreshed every 10 minutes)

About weather observations | Map of weather stations | Latest weather observations for WA | Other Formats
Station Details ID: 003093 Name: FITZROY CROSSING AERO Lat: -18.18 Lon: 125.56 Height: 114.5 m
Data from the previous 72 hours. | See also: Recent months at Fitzroy Crossing
Date/Time
WST
Temp
°C
App
Temp
°C
Dew
Point
°C
Rel
Hum
%
Delta-T
°C
Wind Press
QNH
hPa
Press
MSL
hPa
Rain since
9am
mm
Dir  Spd
km/h
Gust
km/h
Spd
kts
Gust
kts
25/11:30pm 27.2 23.9 4.3 23 11.6 SE 11 13 6 7 1013.0 1012.3 0.0
25/11:00pm 27.7 24.3 4.1 22 12.0 SE 11 15 6 8 1013.0 1012.3 0.0
25/10:30pm 28.4 24.6 4.0 21 12.4 SE 13 17 7 9 1013.2 1012.5 0.0
25/10:00pm 28.8 24.9 3.6 20 12.8 SE 13 17 7 9 1013.3 1012.6 0.0
25/09:30pm 29.1 24.9 3.9 20 12.9 SE 15 20 8 11 1013.3 1012.6 0.0
25/09:00pm 29.6 25.4 3.6 19 13.2 SE 15 20 8 11 1013.5 1012.8 0.0
25/08:30pm 30.2 25.1 3.3 18 13.7 SE 19 26 10 14 1013.3 1012.6 0.0
25/08:00pm 30.6 25.8 2.8 17 14.1 SSE 17 22 9 12 1013.0 1012.3 0.0
25/07:30pm 30.0 25.8 3.9 19 13.4 SSE 15 20 8 11 1012.6 1011.9 0.0
25/07:00pm 29.2 27.0 5.3 22 12.5 SE 6 11 3 6 1012.1 1011.4 0.0
25/06:30pm 29.6 27.2 4.3 20 13.0 E 6 7 3 4 1011.6 1010.9 0.0
25/06:00pm 30.3 27.7 4.1 19 13.5 E 7 7 4 4 1011.3 1010.6 0.0
25/05:30pm 31.3 28.2 3.4 17 14.3 E 9 11 5 6 1011.1 1010.4 0.0
25/05:00pm 33.0 29.0 2.9 15 15.5 SE 13 24 7 13 1010.9 1010.2 0.0
25/04:30pm 33.9 29.9 2.7 14 16.1 ESE 13 19 7 10 1010.6 1009.9 0.0
25/04:00pm 33.9 29.3 1.6 13 16.4 SSE 15 24 8 13 1010.5 1009.8 0.0
25/03:30pm 35.3 30.1 0.4 11 17.5 SE 17 26 9 14 1010.3 1009.6 0.0
25/03:00pm 34.8 29.9 2.3 13 16.7 SE 17 30 9 16 1010.3 1009.6 0.0
25/02:30pm 35.0 30.2 2.5 13 16.8 SSE 17 26 9 14 1010.5 1009.8 0.0
25/02:00pm 35.7 31.0 3.0 13 17.1 E 17 26 9 14 1010.6 1009.9 0.0
25/01:30pm 35.6 32.6 4.0 14 16.8 ESE 9 20 5 11 1010.8 1010.1 0.0
25/01:00pm 34.5 30.2 3.1 14 16.3 E 15 28 8 15 1011.2 1010.5 0.0
25/12:30pm 34.3 29.6 3.0 14 16.2 SE 17 28 9 15 1011.8 1011.1 0.0
25/12:00pm 34.4 29.9 4.0 15 16.0 ESE 17 22 9 12 1012.1 1011.4 0.0
25/11:30am 34.3 29.8 4.0 15 16.0 ESE 17 28 9 15 1012.8 1012.1 0.0
25/11:00am 34.5 29.6 5.0 16 15.8 ENE 20 33 11 18 1013.4 1012.7 0.0
25/10:30am 34.3 29.4 4.9 16 15.7 E 20 32 11 17 1014.1 1013.3 0.0
25/10:00am 32.0 26.6 4.7 18 14.4 E 22 32 12 17 1014.7 1013.9 0.0
25/09:30am 32.2 26.5 4.9 18 14.4 ENE 24 35 13 19 1014.9 1014.1 0.0
25/09:00am 31.2 26.0 5.6 20 13.6 E 22 32 12 17 1015.1 1014.3 0.0
25/08:30am 30.1 25.5 5.4 21 13.0 E 19 32 10 17 1014.9 1014.1 0.0
25/08:00am 28.3 25.0 6.4 25 11.6 E 13 17 7 9 1014.7 1013.9 0.0
25/07:30am 26.4 23.8 5.9 27 10.7 E 9 11 5 6 1014.7 1013.9 0.0
25/07:00am 24.2 22.8 5.5 30 9.5 SW 2 9 1 5 1014.5 1013.7 0.0
25/06:30am 21.5 20.5 5.4 35 8.0 CALM 0 0 0 0 1014.3 1013.5 0.0
25/06:00am 20.8 19.4 3.5 32 8.3 CALM 0 0 0 0 1014.0 1013.2 0.0
25/05:30am 21.6 19.9 3.8 31 8.6 NNW 2 6 1 3 1014.0 1013.2 0.0
25/05:00am 21.6 20.2 3.8 31 8.6 CALM 0 6 0 3 1013.4 1012.7 0.0
25/04:30am 20.8 19.1 4.0 33 8.1 NW 2 6 1 3 1013.3 1012.6 0.0
25/04:00am 20.7 18.9 3.4 32 8.3 NNW 2 6 1 3 1013.1 1012.4 0.0
25/03:30am 20.4 17.7 3.6 33 8.0 NNW 7 7 4 4 1012.8 1012.1 0.0
25/03:00am 20.5 17.9 4.1 34 7.9 NNW 7 7 4 4 1012.8 1012.1 0.0
25/02:30am 21.5 20.1 3.7 31 8.6 CALM 0 0 0 0 1012.5 1011.8 0.0
25/02:00am 20.7 19.1 2.5 30 8.5 CALM 0 0 0 0 1012.3 1011.6 0.0
25/01:30am 23.3 20.0 2.2 25 10.0 SE 9 13 5 7 1012.3 1011.6 0.0
25/01:00am 23.1 19.4 2.6 26 9.8 SSE 11 15 6 8 1012.5 1011.8 0.0
25/12:30am 21.0 19.4 2.3 29 8.8 CALM 0 0 0 0 1012.7 1012.0 0.0
25/12:00am 20.9 17.9 2.2 29 8.7 NNW 7 9 4 5 1013.0 1012.3 0.0
 
Date/Time
WST
Temp
°C
App
Temp
°C
Dew
Point
°C
Rel
Hum
%
Delta-T
°C
Wind Press
QNH
hPa
Press
MSL
hPa
Rain since
9am
mm
Dir  Spd
km/h
Gust
km/h
Spd
kts
Gust
kts
24/11:30pm 21.4 19.8 2.6 29 8.9 CALM 0 0 0 0 1013.1 1012.4 0.0
24/11:00pm 22.1 19.5 1.2 25 9.7 E 4 7 2 4 1013.3 1012.6 0.0
24/10:30pm 25.4 21.4 0.8 20 11.6 ESE 11 13 6 7 1013.2 1012.5 0.0
24/10:00pm 25.8 21.8 0.5 19 11.9 ESE 11 13 6 7 1013.3 1012.6 0.0
24/09:30pm 26.5 22.1 0.3 18 12.3 SE 13 15 7 8 1013.4 1012.7 0.0
24/09:00pm 27.2 22.8 0.1 17 12.8 SE 13 15 7 8 1013.4 1012.7 0.0
24/08:30pm 27.6 23.2 0.4 17 12.9 ESE 13 15 7 8 1013.5 1012.8 0.0
24/08:00pm 27.0 23.3 -0.1 17 12.7 SE 9 13 5 7 1013.5 1012.8 0.0
24/07:30pm 27.7 23.9 -0.4 16 13.2 ESE 9 11 5 6 1013.3 1012.6 0.0
24/07:00pm 28.3 24.2 0.1 16 13.4 ESE 11 13 6 7 1013.0 1012.3 0.0
24/06:30pm 29.0 25.5 -1.2 14 14.1 ESE 7 9 4 5 1012.6 1011.9 0.0
24/06:00pm 31.0 27.1 -1.7 12 15.4 ESE 9 11 5 6 1012.3 1011.6 0.0
24/05:30pm 33.0 28.2 -2.6 10 16.7 ESE 13 19 7 10 1012.0 1011.3 0.0
24/05:00pm 34.4 29.7 -1.6 10 17.3 ESE 13 19 7 10 1011.7 1011.0 0.0
24/04:30pm 35.4 29.9 -2.3 9 18.1 ESE 17 26 9 14 1011.6 1010.9 0.0
24/04:00pm 36.2 29.8 -1.7 9 18.5 SE 22 30 12 16 1011.4 1010.7 0.0
24/03:30pm 36.7 29.8 -2.9 8 19.0 ESE 24 35 13 19 1011.2 1010.5 0.0
24/03:00pm 36.3 30.9 -1.6 9 18.5 ESE 17 30 9 16 1011.1 1010.4 0.0
24/02:30pm 36.5 30.7 -1.4 9 18.6 SE 19 33 10 18 1011.1 1010.4 0.0
24/02:00pm 36.9 31.2 -1.1 9 18.8 E 19 28 10 15 1011.3 1010.6 0.0
24/01:30pm 36.5 30.5 -1.4 9 18.6 ESE 20 30 11 16 1011.7 1011.0 0.0
24/01:00pm 36.8 31.0 -1.2 9 18.7 E 19 33 10 18 1012.1 1011.4 0.0
24/12:30pm 36.3 30.1 -0.2 10 18.2 E 22 35 12 19 1012.5 1011.8 0.0
24/12:00pm 36.0 30.3 -0.4 10 18.1 ENE 19 32 10 17 1013.3 1012.6 0.0
24/11:30am 36.0 29.0 -0.4 10 18.1 SE 26 35 14 19 1014.0 1013.2 0.0
24/11:00am 35.5 29.6 -0.8 10 17.8 SE 20 32 11 17 1014.5 1013.7 0.0
24/10:30am 35.0 28.5 0.2 11 17.3 E 24 39 13 21 1015.1 1014.3 0.0
24/10:00am 34.9 28.6 1.3 12 17.0 E 24 37 13 20 1015.7 1014.9 0.0
24/09:30am 33.6 28.6 1.4 13 16.2 E 17 24 9 13 1016.0 1015.2 0.0
24/09:00am 31.8 26.9 2.0 15 15.0 ESE 17 26 9 14 1016.2 1015.4 0.0
24/08:30am 29.8 25.8 2.9 18 13.6 SE 13 24 7 13 1016.1 1015.3 0.0
24/08:00am 28.3 24.9 3.9 21 12.4 ESE 11 19 6 10 1016.0 1015.2 0.0
24/07:30am 25.5 22.0 3.5 24 10.9 SE 11 15 6 8 1016.0 1015.2 0.0
24/07:00am 23.9 20.9 4.3 28 9.7 ESE 9 11 5 6 1015.8 1015.0 0.0
24/06:30am 20.7 18.2 4.7 35 7.8 ESE 7 9 4 5 1015.4 1014.6 0.0
24/06:00am 19.3 16.7 6.1 42 6.6 NE 9 11 5 6 1014.8 1014.0 0.0
24/05:30am 18.6 17.7 7.7 49 5.6 NNE 2 7 1 4 1014.7 1013.9 0.0
24/05:00am 18.6 17.1 6.8 46 5.9 NE 4 7 2 4 1014.4 1013.6 0.0
24/04:30am 19.3 17.2 6.8 44 6.3 ENE 7 11 4 6 1014.0 1013.2 0.0
24/04:00am 19.8 19.2 7.2 44 6.4 CALM 0 0 0 0 1013.7 1013.0 0.0
24/03:30am 19.7 19.0 7.1 44 6.4 CALM 0 0 0 0 1013.5 1012.8 0.0
24/03:00am 19.5 18.9 7.3 45 6.2 CALM 0 0 0 0 1013.5 1012.8 0.0
24/02:30am 21.6 20.8 6.3 37 7.8 CALM 0 0 0 0 1013.5 1012.8 0.0
24/02:00am 21.7 19.5 6.0 36 7.9 S 7 13 4 7 1013.7 1013.0 0.0
24/01:30am 22.0 21.0 5.8 35 8.2 CALM 0 4 0 2 1013.9 1013.1 0.0
24/01:00am 22.5 20.3 5.4 33 8.6 SSE 6 9 3 5 1013.9 1013.1 0.0
24/12:30am 22.5 21.7 6.3 35 8.3 CALM 0 0 0 0 1013.9 1013.1 0.0
24/12:00am 22.3 21.4 6.1 35 8.2 CALM 0 0 0 0 1013.7 1013.0 0.0
 
Date/Time
WST
Temp
°C
App
Temp
°C
Dew
Point
°C
Rel
Hum
%
Delta-T
°C
Wind Press
QNH
hPa
Press
MSL
hPa
Rain since
9am
mm
Dir  Spd
km/h
Gust
km/h
Spd
kts
Gust
kts
23/11:30pm 22.4 21.4 5.8 34 8.4 CALM 0 0 0 0 1014.0 1013.2 0.0
23/11:00pm 22.0 21.0 5.4 34 8.3 CALM 0 0 0 0 1014.2 1013.4 0.0
23/10:30pm 23.3 22.2 5.2 31 9.1 CALM 0 0 0 0 1014.3 1013.5 0.0
23/10:00pm 24.1 21.8 5.0 29 9.6 ESE 6 6 3 3 1014.3 1013.5 0.0
23/09:30pm 24.4 23.0 5.7 30 9.6 ESE 2 9 1 5 1014.3 1013.5 0.0
23/09:00pm 24.9 22.7 6.1 30 9.7 ESE 7 9 4 5 1014.6 1013.8 0.0
23/08:30pm 25.1 24.0 5.3 28 10.1 CALM 0 0 0 0 1014.5 1013.7 0.0
23/08:00pm 26.3 24.0 4.7 25 11.0 E 6 7 3 4 1014.2 1013.4 0.0
23/07:30pm 28.0 25.5 5.0 23 11.9 E 7 7 4 4 1013.7 1013.0 0.0
23/07:00pm 28.8 26.4 4.3 21 12.6 E 6 7 3 4 1013.3 1012.6 0.0
23/06:30pm 29.5 26.9 4.2 20 13.0 E 7 7 4 4 1012.9 1012.2 0.0
23/06:00pm 30.8 28.0 3.0 17 14.1 ENE 7 9 4 5 1012.5 1011.8 0.0
23/05:30pm 32.0 29.0 2.1 15 15.1 E 7 7 4 4 1012.2 1011.5 0.0
23/05:00pm 33.3 29.6 2.2 14 15.8 E 11 15 6 8 1011.9 1011.2 0.0
23/04:30pm 33.9 29.3 1.6 13 16.3 E 15 22 8 12 1011.7 1011.0 0.0
23/04:00pm 34.4 29.5 2.0 13 16.6 E 17 24 9 13 1011.4 1010.7 0.0
23/03:30pm 34.9 29.3 1.3 12 17.0 ESE 20 32 11 17 1011.3 1010.6 0.0
23/03:00pm 34.9 29.3 1.3 12 17.0 ESE 20 30 11 16 1011.2 1010.5 0.0
23/02:30pm 35.0 28.7 1.4 12 17.1 E 24 33 13 18 1011.0 1010.3 0.0
23/02:00pm 36.2 30.6 1.1 11 17.9 E 20 30 11 16 1010.9 1010.2 0.0
23/01:30pm 36.7 31.3 1.5 11 18.1 ENE 19 26 10 14 1011.0 1010.3 0.0
23/01:00pm 36.1 29.5 -0.3 10 18.1 ENE 24 37 13 20 1011.2 1010.5 0.0
23/12:30pm 36.0 29.4 -0.4 10 18.1 ENE 24 35 13 19 1011.6 1010.9 0.0
23/12:00pm 35.9 28.9 -0.5 10 18.0 E 26 37 14 20 1012.2 1011.5 0.0
23/11:30am 35.5 29.6 -0.8 10 17.8 ENE 20 37 11 20 1012.8 1012.1 0.0
23/11:00am 36.7 30.8 1.5 11 18.1 E 22 33 12 18 1013.4 1012.7 0.0
23/10:30am 35.3 28.8 0.4 11 17.5 ENE 24 37 13 20 1014.1 1013.3 0.0
23/10:00am 35.6 29.0 1.8 12 17.3 ENE 26 43 14 23 1014.4 1013.6 0.0
23/09:30am 35.4 28.0 1.7 12 17.2 ENE 30 37 16 20 1014.9 1014.1 0.0
23/09:00am 34.6 28.4 2.2 13 16.6 NE 24 32 13 17 1014.9 1014.1 0.0
23/08:30am 34.0 28.7 2.8 14 16.1 ENE 20 28 11 15 1015.0 1014.2 0.0
23/08:00am 32.3 28.1 5.7 19 14.2 NE 17 22 9 12 1014.9 1014.1 0.0
23/07:30am 28.1 26.0 6.8 26 11.4 NE 7 9 4 5 1014.9 1014.1 0.0
23/07:00am 25.1 24.4 6.8 31 9.6 CALM 0 0 0 0 1014.6 1013.8 0.0
23/06:30am 21.8 21.1 6.9 38 7.7 CALM 0 0 0 0 1014.4 1013.6 0.0
23/06:00am 20.4 19.7 7.1 42 6.8 CALM 0 0 0 0 1013.9 1013.1 0.0
23/05:30am 20.2 19.6 7.2 43 6.7 CALM 0 0 0 0 1013.3 1012.6 0.0
23/05:00am 20.1 18.4 7.5 44 6.5 ENE 6 6 3 3 1012.9 1012.2 0.0
23/04:30am 20.2 19.3 7.6 44 6.5 N 2 9 1 5 1012.6 1011.9 0.0
23/04:00am 22.1 20.9 6.3 36 8.1 ENE 2 7 1 4 1012.4 1011.7 0.0
23/03:30am 22.4 20.6 7.0 37 8.0 ENE 6 7 3 4 1012.3 1011.6 0.0
23/03:00am 21.7 20.2 6.8 38 7.7 NNE 4 6 2 3 1012.3 1011.6 0.0
23/02:30am 21.9 19.7 6.2 36 8.0 NNE 7 9 4 5 1012.3 1011.6 0.0
23/02:00am 24.7 22.0 5.5 29 9.8 E 9 13 5 7 1012.0 1011.3 0.0
23/01:30am 25.4 22.3 5.6 28 10.2 E 11 13 6 7 1012.1 1011.4 0.0
23/01:00am 25.2 22.5 5.4 28 10.1 E 9 13 5 7 1012.3 1011.6 0.0
23/12:30am 25.9 22.9 6.0 28 10.3 E 11 15 6 8 1012.5 1011.8 0.0
23/12:00am 25.7 22.5 5.3 27 10.4 E 11 13 6 7 1012.7 1012.0 0.0

Other formats

Comma delimited format used in spreadsheet applications
http://www.bom.gov.au/fwo/IDW60801/IDW60801.94206.axf

JavaScript Object Notation format (JSON) in row-major order
http://www.bom.gov.au/fwo/IDW60801/IDW60801.94206.json

Data quality

Most of these data are generated automatically and are frequently updated. Quality checks on data are not normally performed. It is possible for incorrect values to appear. Refer to information at About Latest Weather Observations and please check the disclaimer before using these data.